createdAt,value
2019-01-11T00:01:35.054Z,31.60
2019-01-11T00:04:04.078Z,29.20
2019-01-11T00:06:32.649Z,26.93
2019-01-11T00:09:01.247Z,30.80
2019-01-11T00:11:29.954Z,30.90
2019-01-11T00:13:59.192Z,26.33
2019-01-11T00:16:27.928Z,28.07
2019-01-11T00:18:56.830Z,29.77
2019-01-11T00:21:25.413Z,27.30
2019-01-11T00:23:54.150Z,26.50
2019-01-11T00:26:22.788Z,29.97
2019-01-11T00:28:52.774Z,30.00
2019-01-11T00:31:21.444Z,28.77
2019-01-11T00:33:50.097Z,27.50
2019-01-11T00:36:18.853Z,28.00
2019-01-11T00:38:47.560Z,30.50
2019-01-11T00:41:16.272Z,26.67
2019-01-11T00:43:44.921Z,37.03
2019-01-11T00:46:13.674Z,33.10
2019-01-11T00:48:45.485Z,26.27
2019-01-11T00:51:14.201Z,27.77
2019-01-11T00:53:42.873Z,25.90
2019-01-11T00:56:11.510Z,24.83
2019-01-11T00:58:40.086Z,24.83
2019-01-11T01:01:09.095Z,23.47
2019-01-11T01:03:37.806Z,25.67
2019-01-11T01:06:06.814Z,25.07
2019-01-11T01:08:36.884Z,24.07
2019-01-11T01:11:05.604Z,27.77
2019-01-11T01:13:35.714Z,24.47
2019-01-11T01:16:04.654Z,23.40
2019-01-11T01:18:33.295Z,22.47
2019-01-11T01:21:03.382Z,24.43
2019-01-11T01:23:32.133Z,24.53
2019-01-11T01:26:00.842Z,23.07
2019-01-11T01:28:29.554Z,21.20
2019-01-11T01:30:58.303Z,21.20
2019-01-11T01:33:27.025Z,23.70
2019-01-11T01:35:57.284Z,26.23
2019-01-11T01:38:25.903Z,21.20
2019-01-11T01:40:54.608Z,25.37
2019-01-11T01:43:23.320Z,23.43
2019-01-11T01:45:52.063Z,21.13
2019-01-11T01:48:20.786Z,25.67
2019-01-11T01:50:49.424Z,23.70
2019-01-11T01:53:18.097Z,23.77
2019-01-11T01:55:46.809Z,24.97
2019-01-11T01:58:15.516Z,29.03
2019-01-11T02:00:44.638Z,27.00
2019-01-11T02:03:14.657Z,26.43
2019-01-11T02:05:43.304Z,26.37
2019-01-11T02:08:12.036Z,27.03
2019-01-11T02:10:40.678Z,27.47
2019-01-11T02:13:09.388Z,24.23
2019-01-11T02:15:38.137Z,28.10
2019-01-11T02:18:07.045Z,27.87
2019-01-11T02:20:36.722Z,28.27
2019-01-11T02:23:05.673Z,26.70
2019-01-11T02:25:34.717Z,24.43
2019-01-11T02:28:03.426Z,26.50
2019-01-11T02:30:32.039Z,27.30
2019-01-11T02:33:00.673Z,25.80
2019-01-11T02:35:29.484Z,26.03
2019-01-11T02:37:58.232Z,25.07
2019-01-11T02:40:29.014Z,27.00
2019-01-11T02:42:57.376Z,31.27
2019-01-11T02:45:26.052Z,28.07
2019-01-11T02:47:54.747Z,29.57
2019-01-11T02:50:23.384Z,29.50
2019-01-11T02:52:52.501Z,33.30
2019-01-11T02:55:21.212Z,26.30
2019-01-11T02:57:49.785Z,29.97
2019-01-11T03:00:20.874Z,30.80
2019-01-11T03:02:49.577Z,25.97
2019-01-11T03:05:18.692Z,30.87
2019-01-11T03:07:47.711Z,34.63
2019-01-11T03:10:18.332Z,31.40
2019-01-11T03:12:47.258Z,30.77
2019-01-11T03:15:16.997Z,30.93
2019-01-11T03:17:45.904Z,32.57
2019-01-11T03:20:16.428Z,32.47
2019-01-11T03:22:45.182Z,30.23
2019-01-11T03:25:15.896Z,29.83
2019-01-11T03:27:45.148Z,33.73
2019-01-11T03:30:19.147Z,31.80
2019-01-11T03:32:49.395Z,28.10
2019-01-11T03:35:19.080Z,24.47
2019-01-11T03:37:48.840Z,29.23
2019-01-11T03:40:20.027Z,26.47
2019-01-11T03:42:49.030Z,26.97
2019-01-11T03:45:19.988Z,25.53
2019-01-11T03:47:48.685Z,24.33
2019-01-11T03:50:19.008Z,27.63
2019-01-11T03:52:48.215Z,22.77
2019-01-11T03:55:18.020Z,24.67
2019-01-11T03:57:51.148Z,22.87
2019-01-11T04:00:21.973Z,22.40
2019-01-11T04:02:50.790Z,21.57
2019-01-11T04:05:19.493Z,21.03
2019-01-11T04:07:48.250Z,24.30
2019-01-11T04:10:18.978Z,23.63
2019-01-11T04:12:49.149Z,25.97
2019-01-11T04:15:19.820Z,23.20
2019-01-11T04:17:50.761Z,25.07
2019-01-11T04:20:19.872Z,26.07
2019-01-11T04:22:52.938Z,21.77
2019-01-11T04:25:23.290Z,22.20
2019-01-11T04:27:52.581Z,22.07
2019-01-11T04:30:21.606Z,22.33
2019-01-11T04:32:50.413Z,19.40
2019-01-11T04:35:19.728Z,20.17
2019-01-11T04:37:48.863Z,19.40
2019-01-11T04:40:18.245Z,20.97
2019-01-11T04:42:46.937Z,19.80
2019-01-11T04:45:15.703Z,18.17
2019-01-11T04:47:44.327Z,22.07
2019-01-11T04:50:15.902Z,19.77
2019-01-11T04:52:46.311Z,23.30
2019-01-11T04:55:15.678Z,19.33
2019-01-11T04:57:44.517Z,19.23
2019-01-11T05:00:20.233Z,18.90
2019-01-11T05:02:49.123Z,16.40
2019-01-11T05:05:18.106Z,19.30
2019-01-11T05:07:46.951Z,19.17
2019-01-11T05:10:17.344Z,17.93
2019-01-11T05:12:46.165Z,19.77
2019-01-11T05:15:15.305Z,16.93
2019-01-11T05:17:44.014Z,16.77
2019-01-11T05:20:16.725Z,17.03
2019-01-11T05:22:45.153Z,19.50
2019-01-11T05:25:13.861Z,17.50
2019-01-11T05:27:43.924Z,20.37
2019-01-11T05:30:15.356Z,16.73
2019-01-11T05:32:45.708Z,16.77
2019-01-11T05:35:14.476Z,19.57
2019-01-11T05:37:43.157Z,23.60
2019-01-11T05:40:15.073Z,20.60
2019-01-11T05:42:43.781Z,23.53
2019-01-11T05:45:12.629Z,21.80
2019-01-11T05:47:41.274Z,23.43
2019-01-11T05:50:13.529Z,24.17
2019-01-11T05:52:42.133Z,19.47
2019-01-11T05:55:12.792Z,20.70
2019-01-11T05:57:43.087Z,17.80
2019-01-11T06:00:12.525Z,26.97
2019-01-11T06:02:41.247Z,22.60
2019-01-11T06:05:11.730Z,22.87
2019-01-11T06:07:42.125Z,23.50
2019-01-11T06:10:13.592Z,23.50
2019-01-11T06:12:42.498Z,25.07
2019-01-11T06:15:11.759Z,21.87
2019-01-11T06:17:40.417Z,26.03
2019-01-11T06:20:12.679Z,21.73
2019-01-11T06:22:41.435Z,21.70
2019-01-11T06:25:10.220Z,24.93
2019-01-11T06:27:38.917Z,25.13
2019-01-11T06:30:10.835Z,24.10
2019-01-11T06:32:39.544Z,21.90
2019-01-11T06:35:08.255Z,22.70
2019-01-11T06:37:36.920Z,22.43
2019-01-11T06:40:08.550Z,24.20
2019-01-11T06:42:37.121Z,20.43
2019-01-11T06:45:10.478Z,24.03
2019-01-11T06:47:39.757Z,23.73
2019-01-11T06:50:11.537Z,24.40
2019-01-11T06:52:40.298Z,26.43
2019-01-11T06:55:09.900Z,23.67
2019-01-11T06:57:38.639Z,26.00
2019-01-11T07:00:14.962Z,21.17
2019-01-11T07:02:43.672Z,25.27
2019-01-11T07:05:13.062Z,26.70
2019-01-11T07:07:41.793Z,25.50
2019-01-11T07:10:16.250Z,27.77
2019-01-11T07:12:45.235Z,26.23
2019-01-11T07:15:14.174Z,27.87
2019-01-11T07:17:42.882Z,25.50
2019-01-11T07:20:18.433Z,26.50
2019-01-11T07:22:47.125Z,25.37
2019-01-11T07:25:16.137Z,29.67
2019-01-11T07:27:52.499Z,29.13
2019-01-11T07:30:22.493Z,30.57
2019-01-11T07:32:51.307Z,26.27
2019-01-11T07:35:20.113Z,31.33
2019-01-11T07:37:48.829Z,29.73
2019-01-11T07:40:17.540Z,31.13
2019-01-11T07:42:46.210Z,33.00
2019-01-11T07:45:14.950Z,29.40
2019-01-11T07:47:43.663Z,30.60
2019-01-11T07:50:12.416Z,27.90
2019-01-11T07:52:43.905Z,30.43
2019-01-11T07:55:14.113Z,31.67
2019-01-11T07:57:42.914Z,28.93
2019-01-11T08:00:14.094Z,32.10
2019-01-11T08:02:43.265Z,36.20
2019-01-11T08:05:12.059Z,32.23
2019-01-11T08:07:40.765Z,28.90
2019-01-11T08:10:12.801Z,33.77
2019-01-11T08:12:41.464Z,32.07
2019-01-11T08:15:13.664Z,34.13
2019-01-11T08:17:42.624Z,33.07
2019-01-11T08:20:11.679Z,35.67
2019-01-11T08:22:43.563Z,32.17
2019-01-11T08:25:14.289Z,42.17
2019-01-11T08:27:44.529Z,34.73
2019-01-11T08:30:17.065Z,32.67
2019-01-11T08:32:45.783Z,39.80
2019-01-11T08:35:15.232Z,34.40
2019-01-11T08:37:44.116Z,36.77
2019-01-11T08:40:13.293Z,36.83
2019-01-11T08:42:41.915Z,33.57
2019-01-11T08:45:15.449Z,34.27
2019-01-11T08:47:44.155Z,36.13
2019-01-11T08:50:20.673Z,34.10
2019-01-11T08:52:50.017Z,35.33
2019-01-11T08:55:18.737Z,29.30
2019-01-11T08:57:50.806Z,36.30
2019-01-11T09:00:19.190Z,31.43
2019-01-11T09:02:47.956Z,30.43
2019-01-11T09:05:16.776Z,32.13
2019-01-11T09:07:45.499Z,35.27
2019-01-11T09:10:22.621Z,32.30
2019-01-11T09:12:48.859Z,27.80
2019-01-11T09:15:17.701Z,31.50
2019-01-11T09:18:03.503Z,29.00
2019-01-11T09:20:32.279Z,29.73
2019-01-11T09:23:00.990Z,30.43
2019-01-11T09:25:29.714Z,26.07
2019-01-11T09:28:00.605Z,24.53
2019-01-11T09:30:29.819Z,25.00
2019-01-11T09:32:58.599Z,23.17
2019-01-11T09:35:27.242Z,28.20
2019-01-11T09:37:55.966Z,25.83
2019-01-11T09:40:27.537Z,25.73
2019-01-11T09:42:56.106Z,26.07
2019-01-11T09:45:25.104Z,22.37
2019-01-11T09:47:58.185Z,23.13
2019-01-11T09:50:26.893Z,26.70
2019-01-11T09:52:57.842Z,29.80
2019-01-11T09:55:26.599Z,32.20
2019-01-11T09:57:55.306Z,26.77
2019-01-11T10:00:26.846Z,27.67
2019-01-11T10:02:57.286Z,31.20
2019-01-11T10:05:27.079Z,31.80
2019-01-11T10:07:55.658Z,32.70
2019-01-11T10:10:24.351Z,31.43
2019-01-11T10:12:52.978Z,37.83
2019-01-11T10:15:21.692Z,36.30
2019-01-11T10:17:50.580Z,34.00
2019-01-11T10:20:20.529Z,43.33
2019-01-11T10:22:49.504Z,40.13
2019-01-11T10:25:21.089Z,36.13
2019-01-11T10:27:49.781Z,40.53
2019-01-11T10:30:24.190Z,37.13
2019-01-11T10:32:52.903Z,44.97
2019-01-11T10:35:21.600Z,35.90
2019-01-11T10:37:51.343Z,47.43
2019-01-11T10:40:20.049Z,35.50
2019-01-11T10:42:52.736Z,42.77
2019-01-11T10:45:22.981Z,42.90
2019-01-11T10:47:52.733Z,40.73
2019-01-11T10:50:21.509Z,39.90
2019-01-11T10:52:51.740Z,49.97
2019-01-11T10:55:20.521Z,46.33
2019-01-11T10:57:49.748Z,40.37
2019-01-11T11:00:21.547Z,39.90
2019-01-11T11:02:50.955Z,71.93
2019-01-11T11:05:21.866Z,43.93
2019-01-11T11:07:50.908Z,50.93
2019-01-11T11:10:27.522Z,61.47
2019-01-11T11:12:57.678Z,43.77
2019-01-11T11:15:27.831Z,54.83
2019-01-11T11:17:56.622Z,58.03
2019-01-11T11:20:25.585Z,62.87
2019-01-11T11:22:58.876Z,54.83
2019-01-11T11:25:30.075Z,63.73
2019-01-11T11:27:59.149Z,47.93
2019-01-11T11:30:27.846Z,49.80
2019-01-11T11:32:57.361Z,48.63
2019-01-11T11:35:27.790Z,37.37
2019-01-11T11:37:56.655Z,48.43
2019-01-11T11:40:27.021Z,45.17
2019-01-11T11:42:55.825Z,40.00
2019-01-11T11:45:29.660Z,48.83
2019-01-11T11:47:58.294Z,45.17
2019-01-11T11:50:36.809Z,52.70
2019-01-11T11:53:05.779Z,40.87
2019-01-11T11:55:34.497Z,41.30
2019-01-11T11:58:03.239Z,48.70
2019-01-11T12:00:31.942Z,43.57
2019-01-11T12:03:00.581Z,38.47
2019-01-11T12:05:36.836Z,36.07
2019-01-11T12:08:05.558Z,41.87
2019-01-11T12:10:34.274Z,35.20
2019-01-11T12:13:03.073Z,32.07
2019-01-11T12:15:31.782Z,38.83
2019-01-11T12:18:00.425Z,34.13
2019-01-11T12:20:32.654Z,32.00
2019-01-11T12:23:04.628Z,34.10
2019-01-11T12:25:34.281Z,34.57
2019-01-11T12:28:05.676Z,36.17
2019-01-11T12:30:36.739Z,28.73
2019-01-11T12:33:05.447Z,30.73
2019-01-11T12:35:34.227Z,29.90
2019-01-11T12:38:03.139Z,30.43
2019-01-11T12:40:31.894Z,33.50
2019-01-11T12:43:06.667Z,27.63
2019-01-11T12:45:41.306Z,27.73
2019-01-11T12:48:12.973Z,33.10
2019-01-11T12:50:42.843Z,33.00
2019-01-11T12:53:11.779Z,30.57
2019-01-11T12:55:40.759Z,31.93
2019-01-11T12:58:12.433Z,30.27
2019-01-11T13:00:45.717Z,31.77
2019-01-11T13:03:14.652Z,30.93
2019-01-11T13:05:46.413Z,30.00
2019-01-11T13:08:18.129Z,27.10
2019-01-11T13:10:53.182Z,26.50
2019-01-11T13:13:22.963Z,23.73
2019-01-11T13:15:51.621Z,24.77
2019-01-11T13:18:20.339Z,20.97
2019-01-11T13:20:49.134Z,20.67
2019-01-11T13:23:19.370Z,22.23
2019-01-11T13:25:48.646Z,18.73
2019-01-11T13:28:23.693Z,19.97
2019-01-11T13:30:55.505Z,16.30
2019-01-11T13:33:24.289Z,17.67
2019-01-11T13:35:53.110Z,17.00
2019-01-11T13:38:21.794Z,16.53
2019-01-11T13:40:50.591Z,13.90
2019-01-11T13:43:19.304Z,14.67
2019-01-11T13:45:48.056Z,16.67
2019-01-11T13:48:18.349Z,16.80
2019-01-11T13:50:47.053Z,14.30
2019-01-11T13:53:15.807Z,13.17
2019-01-11T13:55:54.741Z,11.03
2019-01-11T13:58:23.442Z,14.27
2019-01-11T14:00:52.152Z,14.87
2019-01-11T14:03:20.857Z,14.23
2019-01-11T14:05:49.663Z,12.10
2019-01-11T14:08:21.303Z,13.73
2019-01-11T14:10:51.959Z,12.20
2019-01-11T14:13:20.868Z,13.67
2019-01-11T14:15:49.585Z,14.80
2019-01-11T14:18:18.439Z,14.13
2019-01-11T14:20:48.469Z,17.80
2019-01-11T14:23:17.196Z,21.60
2019-01-11T14:25:45.988Z,14.43
2019-01-11T14:28:14.573Z,19.77
2019-01-11T14:30:43.278Z,15.20
2019-01-11T14:33:11.985Z,17.40
2019-01-11T14:35:41.327Z,15.87
2019-01-11T14:38:10.039Z,16.53
2019-01-11T14:40:38.751Z,17.03
2019-01-11T14:43:07.454Z,16.97
2019-01-11T14:45:36.640Z,15.40
2019-01-11T14:48:05.477Z,14.13
2019-01-11T14:50:35.129Z,13.17
2019-01-11T14:53:05.571Z,12.07
2019-01-11T14:55:34.210Z,13.97
2019-01-11T14:58:02.876Z,18.17
2019-01-11T15:00:34.649Z,27.77
2019-01-11T15:03:03.346Z,47.13
2019-01-11T15:05:31.966Z,21.93
2019-01-11T15:08:06.868Z,15.63
2019-01-11T15:10:35.689Z,13.80
2019-01-11T15:13:05.205Z,14.60
2019-01-11T15:15:33.849Z,13.57
2019-01-11T15:18:04.587Z,13.67
2019-01-11T15:20:33.235Z,11.80
2019-01-11T15:23:02.234Z,11.50
2019-01-11T15:25:30.950Z,11.50
2019-01-11T15:27:59.712Z,15.50
2019-01-11T15:30:28.406Z,14.50
2019-01-11T15:32:57.114Z,13.40
2019-01-11T15:35:27.720Z,14.30
2019-01-11T15:37:56.410Z,17.83
2019-01-11T15:40:28.733Z,16.67
2019-01-11T15:42:57.422Z,14.50
2019-01-11T15:45:26.291Z,13.70
2019-01-11T15:47:56.281Z,13.97
2019-01-11T15:50:40.123Z,11.23
2019-01-11T15:53:08.745Z,12.83
2019-01-11T15:55:37.377Z,12.80
2019-01-11T15:58:08.059Z,15.07
2019-01-11T16:00:42.791Z,16.50
2019-01-11T16:03:11.721Z,14.80
2019-01-11T16:05:40.681Z,13.67
2019-01-11T16:08:09.385Z,16.37
2019-01-11T16:10:41.845Z,14.40
2019-01-11T16:13:13.844Z,15.17
2019-01-11T16:15:50.305Z,16.17
2019-01-11T16:18:22.807Z,14.43
2019-01-11T16:20:51.518Z,15.10
2019-01-11T16:23:20.349Z,13.70
2019-01-11T16:25:49.145Z,16.57
2019-01-11T16:28:18.238Z,13.33
2019-01-11T16:30:50.554Z,14.23
2019-01-11T16:33:19.193Z,15.87
2019-01-11T16:35:47.845Z,22.33
2019-01-11T16:38:16.625Z,14.27
2019-01-11T16:40:45.410Z,19.57
2019-01-11T16:43:13.978Z,12.23
2019-01-11T16:45:42.724Z,11.60
2019-01-11T16:48:12.577Z,16.73
2019-01-11T16:50:41.305Z,19.00
2019-01-11T16:53:10.119Z,15.93
2019-01-11T16:55:44.829Z,12.13
2019-01-11T16:58:21.231Z,10.00
2019-01-11T17:00:53.933Z,11.10
2019-01-11T17:03:26.990Z,13.07
2019-01-11T17:05:55.686Z,9.83
2019-01-11T17:08:24.401Z,11.20
2019-01-11T17:10:54.723Z,9.13
2019-01-11T17:13:23.366Z,9.50
2019-01-11T17:15:54.732Z,10.47
2019-01-11T17:18:23.464Z,8.20
2019-01-11T17:20:56.839Z,11.27
2019-01-11T17:23:25.659Z,8.10
2019-01-11T17:25:56.979Z,7.80
2019-01-11T17:28:28.735Z,8.63
2019-01-11T17:31:01.743Z,6.97
2019-01-11T17:33:30.393Z,7.27
2019-01-11T17:36:04.605Z,7.97
2019-01-11T17:38:33.371Z,7.77
2019-01-11T17:41:02.038Z,6.73
2019-01-11T17:43:36.560Z,7.57
2019-01-11T17:46:05.884Z,10.03
2019-01-11T17:48:39.094Z,7.07
2019-01-11T17:51:07.894Z,6.57
2019-01-11T17:53:37.808Z,9.50
2019-01-11T17:56:06.453Z,7.40
2019-01-11T17:58:35.102Z,9.57
2019-01-11T18:01:03.882Z,6.50
2019-01-11T18:03:35.578Z,7.27
2019-01-11T18:06:04.278Z,5.63
2019-01-11T18:08:34.086Z,9.63
2019-01-11T18:11:05.847Z,6.63
2019-01-11T18:13:37.437Z,6.60
2019-01-11T18:16:10.727Z,5.60
2019-01-11T18:18:39.600Z,7.23
2019-01-11T18:21:08.296Z,7.83
2019-01-11T18:23:46.625Z,12.70
2019-01-11T18:26:18.394Z,9.67
2019-01-11T18:28:48.720Z,9.97
2019-01-11T18:31:18.955Z,8.23
2019-01-11T18:33:47.661Z,7.07
2019-01-11T18:36:17.603Z,8.27
2019-01-11T18:38:47.417Z,8.27
2019-01-11T18:41:20.770Z,7.00
2019-01-11T18:43:49.781Z,6.87
2019-01-11T18:46:18.549Z,6.73
2019-01-11T18:48:48.823Z,7.30
2019-01-11T18:51:21.934Z,8.90
2019-01-11T18:53:54.398Z,13.83
2019-01-11T18:56:24.523Z,9.53
2019-01-11T18:58:58.231Z,6.47
2019-01-11T19:01:27.698Z,7.63
2019-01-11T19:03:58.406Z,7.07
2019-01-11T19:06:27.193Z,7.37
2019-01-11T19:08:57.422Z,6.37
2019-01-11T19:11:26.319Z,11.27
2019-01-11T19:13:57.580Z,9.20
2019-01-11T19:16:27.239Z,6.17
2019-01-11T19:19:01.000Z,7.03
2019-01-11T19:21:33.762Z,7.97
2019-01-11T19:24:05.181Z,8.37
2019-01-11T19:26:33.880Z,9.87
2019-01-11T19:29:05.083Z,10.00
2019-01-11T19:31:34.306Z,12.33
2019-01-11T19:34:08.412Z,10.83
2019-01-11T19:36:45.735Z,10.17
2019-01-11T19:39:16.610Z,14.87
2019-01-11T19:41:48.184Z,12.23
2019-01-11T19:44:18.945Z,12.87
2019-01-11T19:46:47.297Z,11.33
2019-01-11T19:49:19.363Z,10.77
2019-01-11T19:51:48.378Z,7.67
2019-01-11T19:54:17.102Z,18.00
2019-01-11T19:56:45.944Z,10.40
2019-01-11T19:59:17.954Z,7.90
2019-01-11T20:01:46.668Z,15.47
2019-01-11T20:04:15.386Z,18.60
2019-01-11T20:06:45.889Z,16.23
2019-01-11T20:09:14.784Z,13.43
2019-01-11T20:11:43.479Z,14.67
2019-01-11T20:14:12.210Z,14.37
2019-01-11T20:16:40.945Z,13.77
2019-01-11T20:19:11.125Z,15.63
2019-01-11T20:21:40.822Z,15.80
2019-01-11T20:24:09.538Z,12.50
2019-01-11T20:26:39.742Z,11.90
2019-01-11T20:29:11.474Z,14.73
2019-01-11T20:31:40.108Z,15.50
2019-01-11T20:34:16.388Z,14.80
2019-01-11T20:36:53.807Z,17.10
2019-01-11T20:39:26.154Z,17.93
2019-01-11T20:41:56.346Z,12.93
2019-01-11T20:44:26.536Z,12.10
2019-01-11T20:46:55.395Z,22.03
2019-01-11T20:49:27.133Z,24.00
2019-01-11T20:51:58.880Z,17.13
2019-01-11T20:54:27.707Z,15.00
2019-01-11T20:56:56.344Z,13.40
2019-01-11T20:59:26.339Z,18.00
2019-01-11T21:01:56.787Z,19.33
2019-01-11T21:04:26.806Z,17.50
2019-01-11T21:06:55.679Z,20.03
2019-01-11T21:09:24.325Z,21.40
2019-01-11T21:11:52.960Z,17.47
2019-01-11T21:14:21.675Z,15.33
2019-01-11T21:16:55.753Z,11.60
2019-01-11T21:19:25.500Z,22.77
2019-01-11T21:21:54.301Z,20.07
2019-01-11T21:24:23.013Z,13.23
2019-01-11T21:26:52.903Z,16.73
2019-01-11T21:29:21.552Z,15.60
2019-01-11T21:31:50.370Z,18.60
2019-01-11T21:34:19.090Z,19.80
2019-01-11T21:36:53.586Z,17.67
2019-01-11T21:39:24.510Z,23.53
2019-01-11T21:42:00.856Z,13.70
2019-01-11T21:44:29.538Z,17.53
2019-01-11T21:46:58.427Z,13.60
2019-01-11T21:49:34.778Z,9.53
2019-01-11T21:52:03.490Z,11.87
2019-01-11T21:54:34.594Z,15.83
2019-01-11T21:57:06.275Z,20.40
2019-01-11T21:59:36.461Z,21.93
2019-01-11T22:02:07.713Z,14.60
2019-01-11T22:04:37.728Z,20.03
2019-01-11T22:07:06.375Z,14.10
2019-01-11T22:09:35.072Z,18.33
2019-01-11T22:12:08.631Z,21.37
2019-01-11T22:14:37.388Z,24.00
2019-01-11T22:17:16.539Z,15.87
2019-01-11T22:19:45.250Z,17.97
2019-01-11T22:22:14.010Z,16.83
2019-01-11T22:24:42.693Z,15.10
2019-01-11T22:27:11.393Z,25.83
2019-01-11T22:29:40.050Z,18.90
2019-01-11T22:32:09.048Z,13.63
2019-01-11T22:34:37.758Z,13.60
2019-01-11T22:37:06.603Z,18.97
2019-01-11T22:39:35.295Z,12.27
2019-01-11T22:42:04.203Z,19.73
2019-01-11T22:44:33.349Z,14.40
2019-01-11T22:47:02.904Z,13.87
2019-01-11T22:49:31.474Z,16.87
2019-01-11T22:52:00.180Z,20.07
2019-01-11T22:54:28.934Z,20.37
2019-01-11T22:56:57.714Z,12.07
2019-01-11T22:59:26.603Z,16.97
2019-01-11T23:01:58.276Z,17.70
2019-01-11T23:04:28.599Z,18.13
2019-01-11T23:07:00.772Z,15.90
2019-01-11T23:09:32.797Z,18.57
2019-01-11T23:12:11.925Z,24.43
2019-01-11T23:14:40.704Z,19.33
2019-01-11T23:17:14.786Z,23.20
2019-01-11T23:19:43.564Z,16.90
2019-01-11T23:22:13.230Z,17.13
2019-01-11T23:24:43.308Z,17.77
2019-01-11T23:27:12.107Z,24.13
2019-01-11T23:29:42.397Z,21.03
2019-01-11T23:32:11.041Z,18.63
2019-01-11T23:34:39.773Z,23.77
2019-01-11T23:37:08.601Z,20.70
2019-01-11T23:39:37.306Z,31.10
2019-01-11T23:42:07.814Z,27.67
2019-01-11T23:44:36.560Z,19.57
2019-01-11T23:47:05.689Z,17.80
2019-01-11T23:49:34.394Z,16.60
2019-01-11T23:52:03.454Z,17.87
2019-01-11T23:54:32.142Z,24.20
2019-01-11T23:57:00.789Z,17.87
2019-01-11T23:59:29.621Z,15.70
